Friday, October 24, 2014, 1:59 PM EDT

KSEG, Selinsgrove Penn Valley Airport

Location: Selinsgrove, PA, United States Lat: 40.817
Local Time: 1:59 PM EDT (17:59 GMT) Lon: -76.867
Time Zone: US/Eastern Elev: 449 ft

Show me the last for .
Show Decoded

2014-10-24 12:53 METAR KSEG 241653Z AUTO 34009G15KT 300V010 10SM CLR 19/05 A2991 RMK AO2 SLP126
                 T01890050 =
2014-10-24 11:53 METAR KSEG 241553Z AUTO 30009KT 10SM CLR 17/04 A2994 RMK AO2 SLP139 T01720039 =
2014-10-24 10:53 METAR KSEG 241453Z AUTO 33005G16KT 10SM CLR 16/04 A2995 RMK AO2 SLP142 T01560044
                 50003 =
2014-10-24 09:53 METAR KSEG 241353Z AUTO 29007KT 10SM CLR 14/04 A2996 RMK AO2 SLP144 T01390044 =
2014-10-24 08:53 METAR KSEG 241253Z AUTO 30008KT 10SM FEW037 13/06 A2995 RMK AO2 SLP142 T01330056
                 =
2014-10-24 07:53 METAR KSEG 241153Z AUTO 31003KT 10SM CLR 11/06 A2994 RMK AO2 SLP140 T01110056
                 10139 20106 51003 =
2014-10-24 06:53 METAR KSEG 241053Z AUTO VRB04KT 10SM BKN043 12/06 A2994 RMK AO2 SLP139 T01220061
                 =
2014-10-24 05:53 METAR KSEG 240953Z AUTO 32006KT 10SM BKN038 13/06 A2994 RMK AO2 SLP137 T01330061
                 =
2014-10-24 04:53 METAR KSEG 240853Z AUTO 34004KT 10SM OVC034 13/06 A2993 RMK AO2 SLP136 T01330061
                 51011 =
2014-10-24 03:53 METAR KSEG 240753Z AUTO 33007KT 10SM OVC034 13/06 A2992 RMK AO2 SLP132 T01330061
                 =
2014-10-24 02:53 METAR KSEG 240653Z AUTO 32008KT 10SM OVC038 14/06 A2992 RMK AO2 SLP130 T01390056
                 =
2014-10-24 01:53 METAR KSEG 240553Z AUTO 34010KT 10SM BKN039 OVC050 14/06 A2990 RMK AO2 SLP124
                 T01390056 10150 20139 56007 =
2014-10-24 00:53 METAR KSEG 240453Z AUTO 34010KT 10SM OVC041 14/05 A2990 RMK AO2 SLP125 T01390050
                 401610100 =
2014-10-23 23:53 METAR KSEG 240353Z AUTO 33010KT 10SM OVC045 14/05 A2992 RMK AO2 SLP130 T01440050
                 =
2014-10-23 22:53 METAR KSEG 240253Z AUTO 34009KT 10SM OVC047 14/04 A2992 RMK AO2 SLP132 T01440044
                 50003 =
2014-10-23 21:53 METAR KSEG 240153Z AUTO 34012G19KT 10SM OVC049 15/04 A2992 RMK AO2 SLP133
                 T01500044 =
2014-10-23 20:53 METAR KSEG 240053Z AUTO 36014G21KT 10SM OVC050 15/04 A2991 RMK AO2 SLP129
                 T01500044 =
2014-10-23 19:53 METAR KSEG 232353Z AUTO 33006KT 10SM OVC044 14/06 A2991 RMK AO2 SLP130 T01440061
                 10161 20144 51019 =
2014-10-23 18:53 METAR KSEG 232253Z AUTO 01009G18KT 10SM OVC042 16/07 A2990 RMK AO2 SLP126
                 T01560067 =
2014-10-23 17:53 METAR KSEG 232153Z AUTO 33015G22KT 10SM OVC042 16/07 A2988 RMK AO2 SLP117
                 T01610067 =
2014-10-23 16:53 METAR KSEG 232053Z AUTO VRB04KT 10SM OVC042 16/07 A2986 RMK AO2 SLP110 T01560072
                 58003 =
2014-10-23 15:53 METAR KSEG 231953Z AUTO 35007KT 10SM OVC037 15/07 A2987 RMK AO2 SLP115 T01500067
                 =
2014-10-23 14:53 METAR KSEG 231853Z AUTO 34014G25KT 10SM OVC036 15/07 A2987 RMK AO2 PK WND
                 34026/1809 SLP115 T01500067 =

Support USWX by starting your Amazon purchase here.